createdAt,value
2023-02-03T00:00:19.950Z,0.20
2023-02-03T00:02:48.567Z,0.30
2023-02-03T00:05:17.292Z,0.30
2023-02-03T00:07:45.919Z,0.40
2023-02-03T00:10:14.552Z,0.40
2023-02-03T00:12:44.536Z,0.50
2023-02-03T00:15:13.076Z,0.60
2023-02-03T00:17:41.707Z,0.60
2023-02-03T00:20:13.103Z,0.60
2023-02-03T00:22:41.644Z,0.70
2023-02-03T00:25:10.449Z,0.60
2023-02-03T00:27:39.086Z,0.70
2023-02-03T00:30:11.039Z,0.70
2023-02-03T00:32:39.972Z,0.60
2023-02-03T00:35:09.155Z,0.70
2023-02-03T00:37:38.414Z,0.70
2023-02-03T00:40:07.993Z,0.70
2023-02-03T00:42:37.054Z,0.70
2023-02-03T00:45:07.419Z,0.70
2023-02-03T00:47:37.647Z,0.70
2023-02-03T00:50:07.046Z,0.80
2023-02-03T00:52:36.772Z,0.80
2023-02-03T00:55:06.493Z,0.80
2023-02-03T00:57:35.055Z,0.90
2023-02-03T01:00:04.057Z,0.90
2023-02-03T01:02:33.492Z,0.80
2023-02-03T01:05:03.476Z,0.80
2023-02-03T01:07:33.499Z,0.90
2023-02-03T01:10:02.099Z,0.90
2023-02-03T01:12:32.630Z,0.90
2023-02-03T01:15:01.596Z,0.80
2023-02-03T01:17:32.457Z,0.80
2023-02-03T01:20:02.452Z,0.80
2023-02-03T01:22:32.363Z,0.70
2023-02-03T01:25:00.973Z,0.70
2023-02-03T01:27:29.637Z,0.50
2023-02-03T01:29:58.219Z,0.50
2023-02-03T01:32:28.347Z,0.40
2023-02-03T01:34:56.947Z,0.30
2023-02-03T01:37:34.257Z,0.20
2023-02-03T01:40:02.876Z,0.20
2023-02-03T01:42:35.226Z,0.10
2023-02-03T01:45:03.921Z,0.10
2023-02-03T01:47:37.209Z,0.10
2023-02-03T01:50:14.766Z,0.10
2023-02-03T01:52:50.608Z,0.10
2023-02-03T01:55:24.382Z,0.10
2023-02-03T01:57:57.269Z,0.20
2023-02-03T02:00:27.876Z,0.20
2023-02-03T02:03:01.115Z,0.10
2023-02-03T02:05:34.820Z,0.10
2023-02-03T02:08:05.954Z,0.10
2023-02-03T02:10:35.883Z,0.10
2023-02-03T02:13:06.086Z,0.10
2023-02-03T02:15:43.864Z,0.10
2023-02-03T02:18:25.201Z,0.10
2023-02-03T02:21:42.746Z,0.10
2023-02-03T02:24:41.200Z,0.00
2023-02-03T02:27:19.945Z,0.00
2023-02-03T02:30:19.720Z,0.00
2023-02-03T02:33:04.072Z,-0.10
2023-02-03T02:35:46.891Z,-0.10
2023-02-03T02:38:22.239Z,-0.10
2023-02-03T02:40:55.957Z,-0.20
2023-02-03T02:43:29.656Z,-0.20
2023-02-03T02:46:04.294Z,-0.20
2023-02-03T02:48:40.781Z,-0.20
2023-02-03T02:51:12.775Z,-0.30
2023-02-03T02:53:46.949Z,-0.30
2023-02-03T02:56:18.004Z,-0.30
2023-02-03T02:58:50.047Z,-0.30
2023-02-03T03:01:19.301Z,-0.30
2023-02-03T03:03:49.488Z,-0.40
2023-02-03T03:06:25.769Z,-0.30
2023-02-03T03:08:58.614Z,-0.30
2023-02-03T03:11:29.605Z,-0.30
2023-02-03T03:14:00.336Z,-0.30
2023-02-03T03:16:32.121Z,-0.30
2023-02-03T03:19:06.274Z,-0.30
2023-02-03T03:21:42.723Z,-0.30
2023-02-03T03:24:15.344Z,-0.30
2023-02-03T03:26:51.961Z,-0.30
2023-02-03T03:29:27.631Z,-0.30
2023-02-03T03:31:57.155Z,-0.30
2023-02-03T03:34:27.401Z,-0.30
2023-02-03T03:37:03.167Z,-0.30
2023-02-03T03:39:38.388Z,-0.30
2023-02-03T03:42:13.498Z,-0.30
2023-02-03T03:44:56.158Z,-0.30
2023-02-03T03:47:29.002Z,-0.30
2023-02-03T03:50:02.381Z,-0.30
2023-02-03T03:52:37.072Z,-0.30
2023-02-03T03:55:09.562Z,-0.30
2023-02-03T03:57:42.959Z,-0.30
2023-02-03T04:00:16.252Z,-0.40
2023-02-03T04:02:51.994Z,-0.30
2023-02-03T04:05:23.256Z,-0.30
2023-02-03T04:07:51.909Z,-0.30
2023-02-03T04:10:28.118Z,-0.30
2023-02-03T04:12:56.974Z,-0.30
2023-02-03T04:15:25.590Z,-0.30
2023-02-03T04:17:54.878Z,-0.30
2023-02-03T04:20:25.379Z,-0.30
2023-02-03T04:22:54.375Z,-0.30
2023-02-03T04:25:23.667Z,-0.30
2023-02-03T04:27:52.255Z,-0.20
2023-02-03T04:30:20.827Z,-0.20
2023-02-03T04:32:49.515Z,-0.20
2023-02-03T04:35:18.153Z,-0.20
2023-02-03T04:37:48.199Z,-0.20
2023-02-03T04:40:16.923Z,-0.20
2023-02-03T04:42:45.588Z,-0.20
2023-02-03T04:45:14.177Z,-0.10
2023-02-03T04:47:42.800Z,-0.20
2023-02-03T04:50:11.738Z,-0.20
2023-02-03T04:52:40.329Z,-0.10
2023-02-03T04:55:10.593Z,-0.10
2023-02-03T04:57:39.094Z,-0.10
2023-02-03T05:00:08.968Z,-0.10
2023-02-03T05:02:37.630Z,0.00
2023-02-03T05:05:06.931Z,0.00
2023-02-03T05:07:35.510Z,0.00
2023-02-03T05:10:04.140Z,0.00
2023-02-03T05:12:34.236Z,0.00
2023-02-03T05:15:02.872Z,0.00
2023-02-03T05:17:32.500Z,0.00
2023-02-03T05:20:01.105Z,0.10
2023-02-03T05:22:29.748Z,0.10
2023-02-03T05:24:58.362Z,0.10
2023-02-03T05:27:27.107Z,0.10
2023-02-03T05:29:57.253Z,0.10
2023-02-03T05:32:25.933Z,0.10
2023-02-03T05:34:54.624Z,0.10
2023-02-03T05:37:23.786Z,0.10
2023-02-03T05:39:52.427Z,0.20
2023-02-03T05:42:20.021Z,0.10
2023-02-03T05:44:48.597Z,0.10
2023-02-03T05:47:18.580Z,0.20
2023-02-03T05:49:47.181Z,0.10
2023-02-03T05:52:15.690Z,0.20
2023-02-03T05:54:54.853Z,0.20
2023-02-03T05:57:25.322Z,0.20
2023-02-03T06:00:01.920Z,0.20
2023-02-03T06:02:41.813Z,0.20
2023-02-03T06:05:10.565Z,0.20
2023-02-03T06:07:39.648Z,0.20
2023-02-03T06:10:09.488Z,0.20
2023-02-03T06:12:39.253Z,0.20
2023-02-03T06:15:08.628Z,0.30
2023-02-03T06:17:37.647Z,0.30
2023-02-03T06:20:09.381Z,0.30
2023-02-03T06:22:38.147Z,0.30
2023-02-03T07:09:56.130Z,0.30
2023-02-03T07:12:24.720Z,0.20
2023-02-03T07:14:53.255Z,0.20
2023-02-03T07:17:21.843Z,0.20
2023-02-03T07:19:50.390Z,0.20
2023-02-03T07:22:18.906Z,0.10
2023-02-03T07:24:47.709Z,0.10
2023-02-03T07:27:19.327Z,0.10
2023-02-03T07:29:48.131Z,0.10
2023-02-03T07:32:16.921Z,0.00
2023-02-03T07:34:45.584Z,0.00
2023-02-03T07:37:14.209Z,0.00
2023-02-03T07:39:43.371Z,0.00
2023-02-03T07:42:12.103Z,0.10
2023-02-03T07:44:47.617Z,0.00
2023-02-03T07:47:16.295Z,0.00
2023-02-03T07:49:45.005Z,0.10
2023-02-03T07:52:13.639Z,0.10
2023-02-03T07:54:42.336Z,0.00
2023-02-03T07:57:11.025Z,0.10
2023-02-03T07:59:39.603Z,0.00
2023-02-03T08:02:11.431Z,0.10
2023-02-03T08:04:40.022Z,0.10
2023-02-03T08:07:08.973Z,0.10
2023-02-03T08:09:37.651Z,0.20
2023-02-03T08:12:06.565Z,0.20
2023-02-03T08:14:35.163Z,0.20
2023-02-03T08:17:03.802Z,0.20
2023-02-03T08:19:34.096Z,0.20
2023-02-03T08:22:02.812Z,0.30
2023-02-03T08:24:31.385Z,0.20
2023-02-03T08:27:01.055Z,0.30
2023-02-03T08:29:29.608Z,0.30
2023-02-03T08:31:58.780Z,0.30
2023-02-03T08:34:27.394Z,0.20
2023-02-03T08:36:57.448Z,0.20
2023-02-03T08:39:25.956Z,0.20
2023-02-03T08:41:54.500Z,0.30
2023-02-03T08:44:23.076Z,0.30
2023-02-03T08:46:52.384Z,0.40
2023-02-03T08:49:21.740Z,0.40
2023-02-03T08:51:50.299Z,0.40
2023-02-03T08:54:20.998Z,0.40
2023-02-03T08:56:49.551Z,0.50
2023-02-03T08:59:18.147Z,0.60
2023-02-03T09:01:48.650Z,0.60
2023-02-03T09:04:19.671Z,0.70
2023-02-03T09:06:48.951Z,0.70
2023-02-03T09:09:18.432Z,0.70
2023-02-03T09:11:48.592Z,0.80
2023-02-03T09:17:20.343Z,1.00
2023-02-03T09:19:48.887Z,1.10
2023-02-03T09:22:17.506Z,1.10
2023-02-03T09:24:46.192Z,1.10
2023-02-03T09:27:16.667Z,1.10
2023-02-03T09:29:45.368Z,1.20
2023-02-03T09:32:15.607Z,1.20
2023-02-03T09:34:44.569Z,1.20
2023-02-03T09:37:13.296Z,1.30
2023-02-03T09:39:41.865Z,1.30
2023-02-03T09:42:28.643Z,1.30
2023-02-03T09:45:08.743Z,1.40
2023-02-03T09:47:41.888Z,1.40
2023-02-03T09:50:15.841Z,1.40
2023-02-03T09:52:45.459Z,1.50
2023-02-03T09:55:27.712Z,1.50
2023-02-03T09:58:04.655Z,1.50
2023-02-03T10:00:37.155Z,1.60
2023-02-03T10:03:12.426Z,1.60
2023-02-03T10:05:54.976Z,1.50
2023-02-03T10:08:37.271Z,1.60
2023-02-03T10:11:17.952Z,1.60
2023-02-03T10:13:57.609Z,1.60
2023-02-03T10:16:44.461Z,1.60
2023-02-03T10:19:20.099Z,1.60
2023-02-03T10:21:52.320Z,1.60
2023-02-03T10:24:28.430Z,1.60
2023-02-03T10:27:01.124Z,1.60
2023-02-03T10:29:38.413Z,1.70
2023-02-03T10:32:10.474Z,1.80
2023-02-03T10:34:39.385Z,1.80
2023-02-03T10:37:18.599Z,1.80
2023-02-03T10:39:49.077Z,1.80
2023-02-03T10:42:18.860Z,1.70
2023-02-03T10:44:54.489Z,1.80
2023-02-03T10:47:26.422Z,1.80
2023-02-03T10:49:56.591Z,1.90
2023-02-03T10:52:31.790Z,1.90
2023-02-03T10:55:01.033Z,1.90
2023-02-03T10:57:31.318Z,2.00
2023-02-03T11:00:22.778Z,2.00
2023-02-03T11:02:58.747Z,2.00
2023-02-03T11:05:27.450Z,2.00
2023-02-03T11:07:56.456Z,2.10
2023-02-03T11:10:31.179Z,2.10
2023-02-03T11:13:14.349Z,2.20
2023-02-03T11:15:59.175Z,2.20
2023-02-03T11:18:57.604Z,2.20
2023-02-03T11:21:29.377Z,2.10
2023-02-03T11:24:07.995Z,2.10
2023-02-03T11:26:41.194Z,2.10
2023-02-03T11:29:19.075Z,2.10
2023-02-03T11:31:50.856Z,2.10
2023-02-03T11:34:26.133Z,2.00
2023-02-03T11:36:54.905Z,2.00
2023-02-03T11:39:29.224Z,2.00
2023-02-03T11:41:58.113Z,2.10
2023-02-03T11:44:29.649Z,2.00
2023-02-03T11:47:02.522Z,2.00
2023-02-03T11:50:10.712Z,2.00
2023-02-03T11:52:55.479Z,2.00
2023-02-03T11:55:44.038Z,2.00
2023-02-03T11:58:35.267Z,2.00
2023-02-03T12:01:13.463Z,2.00
2023-02-03T12:03:56.499Z,2.00
2023-02-03T12:06:58.517Z,2.00
2023-02-03T12:09:38.546Z,2.00
2023-02-03T12:12:49.873Z,2.00
2023-02-03T12:15:50.350Z,2.00
2023-02-03T12:18:35.059Z,2.20
2023-02-03T12:21:20.776Z,2.20
2023-02-03T12:23:59.676Z,2.30
2023-02-03T12:26:40.244Z,2.40
2023-02-03T12:29:13.638Z,2.40
2023-02-03T12:31:47.972Z,2.30
2023-02-03T12:34:20.782Z,2.30
2023-02-03T12:36:54.663Z,2.40
2023-02-03T12:39:27.878Z,2.40
2023-02-03T12:42:03.395Z,2.40
2023-02-03T12:44:36.899Z,2.40
2023-02-03T12:47:13.373Z,2.50
2023-02-03T12:49:46.879Z,2.70
2023-02-03T12:52:25.222Z,2.70
2023-02-03T12:55:14.491Z,2.90
2023-02-03T12:57:50.951Z,3.00
2023-02-03T13:00:31.015Z,3.10
2023-02-03T13:03:14.756Z,3.10
2023-02-03T13:21:34.429Z,3.90
2023-02-03T13:24:05.580Z,4.00
2023-02-03T13:27:12.821Z,4.00
2023-02-03T13:30:03.430Z,4.00
2023-02-03T13:32:58.694Z,4.10
2023-02-03T13:35:41.141Z,4.10
2023-02-03T13:39:06.261Z,4.20
2023-02-03T13:41:43.016Z,4.30
2023-02-03T13:44:13.979Z,4.30
2023-02-03T13:46:43.202Z,4.40
2023-02-03T13:49:22.025Z,4.40
2023-02-03T13:51:50.696Z,4.50
2023-02-03T13:54:27.575Z,4.60
2023-02-03T13:56:59.987Z,4.70
2023-02-03T13:59:33.110Z,4.60
2023-02-03T14:02:43.382Z,4.50
2023-02-03T14:05:43.325Z,4.50
2023-02-03T14:08:53.812Z,4.40
2023-02-03T14:11:45.820Z,4.40
2023-02-03T14:14:46.308Z,4.30
2023-02-03T14:17:51.326Z,4.40
2023-02-03T14:20:43.357Z,4.30
2023-02-03T14:23:17.914Z,4.30
2023-02-03T14:25:49.842Z,4.30
2023-02-03T14:28:24.034Z,4.30
2023-02-03T14:31:17.024Z,4.30
2023-02-03T14:34:05.853Z,4.30
2023-02-03T14:36:56.818Z,4.40
2023-02-03T14:40:01.991Z,4.40
2023-02-03T14:43:12.604Z,4.50
2023-02-03T14:46:11.807Z,4.60
2023-02-03T14:49:04.125Z,4.60
2023-02-03T14:51:56.608Z,4.60
2023-02-03T14:54:40.567Z,4.60
2023-02-03T14:57:25.312Z,4.60
2023-02-03T14:59:59.199Z,4.60
2023-02-03T15:02:31.693Z,4.60
2023-02-03T15:05:39.300Z,4.60
2023-02-03T15:14:48.122Z,4.70
2023-02-03T15:17:23.997Z,4.70
2023-02-03T15:19:54.733Z,4.70
2023-02-03T15:22:25.153Z,4.70
2023-02-03T15:24:56.923Z,4.80
2023-02-03T15:27:28.092Z,4.70
2023-02-03T15:29:59.028Z,4.70
2023-02-03T15:32:34.693Z,4.80
2023-02-03T15:35:07.729Z,4.80
2023-02-03T15:37:43.154Z,4.80
2023-02-03T15:40:17.827Z,4.90
2023-02-03T15:42:56.475Z,4.90
2023-02-03T15:45:31.827Z,4.90
2023-02-03T15:48:05.760Z,5.00
2023-02-03T15:50:39.584Z,5.00
2023-02-03T15:53:11.874Z,5.00
2023-02-03T15:55:46.895Z,5.00
2023-02-03T15:58:20.332Z,5.00
2023-02-03T16:00:52.536Z,4.90
2023-02-03T16:03:39.452Z,4.90
2023-02-03T16:06:19.198Z,4.80
2023-02-03T16:08:48.934Z,4.80
2023-02-03T16:11:30.340Z,4.90
2023-02-03T16:14:00.998Z,4.80
2023-02-03T16:16:34.276Z,4.80
2023-02-03T16:38:40.692Z,4.90
2023-02-03T16:41:35.689Z,4.90
2023-02-03T16:44:21.498Z,4.80
2023-02-03T16:47:08.185Z,4.80
2023-02-03T16:49:54.278Z,4.80
2023-02-03T16:52:22.857Z,4.70
2023-02-03T17:03:59.777Z,4.80
2023-02-03T17:06:28.350Z,4.90
2023-02-03T17:08:58.881Z,4.90
2023-02-03T17:11:27.738Z,4.90
2023-02-03T17:13:58.365Z,5.00
2023-02-03T17:16:28.563Z,5.00
2023-02-03T17:18:57.268Z,5.00
2023-02-03T17:21:29.810Z,5.00
2023-02-03T17:23:59.630Z,5.00
2023-02-03T17:26:28.171Z,5.00
2023-02-03T17:28:58.685Z,5.10
2023-02-03T17:31:27.384Z,5.10
2023-02-03T17:33:56.526Z,5.10
2023-02-03T17:36:26.580Z,5.10
2023-02-03T17:55:32.313Z,4.60
2023-02-03T17:58:01.043Z,4.50
2023-02-03T18:00:30.030Z,4.50
2023-02-03T18:02:58.858Z,4.40
2023-02-03T18:05:28.938Z,4.30
2023-02-03T18:08:03.125Z,4.20
2023-02-03T18:10:37.988Z,4.20
2023-02-03T18:13:06.519Z,4.10
2023-02-03T18:15:37.838Z,4.10
2023-02-03T18:18:06.641Z,4.20
2023-02-03T18:20:35.989Z,4.10
2023-02-03T18:23:05.973Z,4.10
2023-02-03T18:25:36.514Z,4.10
2023-02-03T18:28:05.379Z,4.10
2023-02-03T18:30:34.101Z,4.20
2023-02-03T18:33:03.896Z,4.20
2023-02-03T18:35:34.431Z,4.20
2023-02-03T18:38:07.730Z,4.20
2023-02-03T18:40:37.998Z,4.20
2023-02-03T18:43:09.401Z,4.30
2023-02-03T18:45:39.397Z,4.30
2023-02-03T18:48:08.105Z,4.20
2023-02-03T18:50:36.727Z,4.30
2023-02-03T18:53:06.981Z,4.30
2023-02-03T18:55:35.524Z,4.30
2023-02-03T18:58:04.859Z,4.30
2023-02-03T19:00:33.396Z,4.30
2023-02-03T19:03:02.416Z,4.30
2023-02-03T19:05:30.995Z,4.40
2023-02-03T19:07:59.546Z,4.30
2023-02-03T19:10:33.595Z,4.40
2023-02-03T19:13:02.201Z,4.40
2023-02-03T19:15:30.848Z,4.50
2023-02-03T19:17:59.450Z,4.50
2023-02-03T19:20:28.186Z,4.40
2023-02-03T19:22:56.910Z,4.50
2023-02-03T19:25:25.494Z,4.60
2023-02-03T19:27:55.511Z,4.60
2023-02-03T19:30:24.092Z,4.70
2023-02-03T19:32:52.643Z,4.70
2023-02-03T19:35:21.315Z,4.70
2023-02-03T19:37:49.861Z,4.70
2023-02-03T19:40:18.865Z,4.80
2023-02-03T19:42:47.694Z,4.80
2023-02-03T19:45:17.815Z,4.80
2023-02-03T19:47:46.557Z,4.80
2023-02-03T19:50:15.168Z,4.90
2023-02-03T19:52:43.840Z,4.90
2023-02-03T19:55:12.518Z,4.90
2023-02-03T19:57:41.079Z,5.00
2023-02-03T20:00:11.103Z,4.90
2023-02-03T20:02:44.014Z,4.90
2023-02-03T20:05:12.966Z,4.90
2023-02-03T20:07:41.611Z,4.90
2023-02-03T20:10:10.972Z,5.00
2023-02-03T20:12:39.593Z,5.00
2023-02-03T20:15:09.178Z,5.00
2023-02-03T20:17:37.878Z,5.00
2023-02-03T20:20:08.475Z,5.00
2023-02-03T20:22:37.004Z,4.90
2023-02-03T20:25:06.270Z,4.90
2023-02-03T20:27:34.924Z,4.90
2023-02-03T20:30:04.153Z,4.90
2023-02-03T20:32:33.398Z,4.90
2023-02-03T20:35:04.211Z,4.90
2023-02-03T20:37:36.151Z,5.00
2023-02-03T20:40:07.467Z,5.00
2023-02-03T20:42:36.143Z,4.90
2023-02-03T20:45:11.939Z,4.90
2023-02-03T20:47:40.523Z,4.90
2023-02-03T20:50:15.798Z,4.80
2023-02-03T20:52:47.547Z,4.80
2023-02-03T20:55:18.228Z,4.80
2023-02-03T20:57:50.414Z,4.70
2023-02-03T21:00:21.726Z,4.70
2023-02-03T21:03:08.344Z,4.70
2023-02-03T21:05:39.149Z,4.70
2023-02-03T21:08:18.430Z,4.70
2023-02-03T21:10:48.958Z,4.70
2023-02-03T21:13:23.062Z,4.70
2023-02-03T21:15:53.628Z,4.60
2023-02-03T21:18:39.996Z,4.70
2023-02-03T21:21:20.208Z,4.70
2023-02-03T21:23:50.148Z,4.70
2023-02-03T21:26:20.764Z,4.70
2023-02-03T21:28:51.927Z,4.80
2023-02-03T21:31:26.851Z,4.80
2023-02-03T21:33:56.615Z,4.90
2023-02-03T21:36:26.882Z,4.90
2023-02-03T21:38:59.806Z,4.90
2023-02-03T21:41:33.237Z,4.90
2023-02-03T21:44:02.058Z,4.90
2023-02-03T21:46:35.793Z,4.80
2023-02-03T21:49:05.267Z,4.80
2023-02-03T21:51:36.732Z,4.80
2023-02-03T21:54:30.351Z,4.80
2023-02-03T21:56:59.774Z,4.80
2023-02-03T21:59:36.681Z,4.80
2023-02-03T22:02:18.370Z,4.80
2023-02-03T22:04:47.037Z,4.80
2023-02-03T22:07:16.572Z,4.70
2023-02-03T22:09:50.295Z,4.70
2023-02-03T22:12:18.937Z,4.70
2023-02-03T22:14:47.652Z,4.70
2023-02-03T22:17:18.416Z,4.60
2023-02-03T22:19:47.003Z,4.70
2023-02-03T22:22:15.510Z,4.70
2023-02-03T22:24:44.004Z,4.60
2023-02-03T22:27:13.955Z,4.70
2023-02-03T22:29:42.466Z,4.60
2023-02-03T22:32:10.973Z,4.60
2023-02-03T22:34:39.533Z,4.60
2023-02-03T22:37:08.143Z,4.60
2023-02-03T22:39:36.677Z,4.70
2023-02-03T22:42:05.503Z,4.60
2023-02-03T22:44:35.448Z,4.60
2023-02-03T22:47:04.007Z,4.60
2023-02-03T22:49:32.498Z,4.60
2023-02-03T22:52:00.991Z,4.60
2023-02-03T22:54:29.513Z,4.70
2023-02-03T22:56:58.029Z,4.60
2023-02-03T22:59:26.554Z,4.60
2023-02-03T23:01:56.474Z,4.60
2023-02-03T23:04:25.020Z,4.60
2023-02-03T23:06:53.612Z,4.60
2023-02-03T23:09:22.163Z,4.60
2023-02-03T23:11:50.694Z,4.50
2023-02-03T23:14:19.187Z,4.50
2023-02-03T23:16:47.780Z,4.50
2023-02-03T23:19:17.764Z,4.50
2023-02-03T23:21:46.458Z,4.50
2023-02-03T23:24:15.084Z,4.50
2023-02-03T23:26:43.780Z,4.50
2023-02-03T23:29:12.614Z,4.50
2023-02-03T23:31:41.428Z,4.50
2023-02-03T23:34:27.684Z,4.50
2023-02-03T23:36:59.937Z,4.50
2023-02-03T23:39:29.605Z,4.60
2023-02-03T23:41:59.695Z,4.50
2023-02-03T23:44:28.666Z,4.50
2023-02-03T23:46:57.210Z,4.50
2023-02-03T23:49:25.901Z,4.50
2023-02-03T23:51:54.400Z,4.50
2023-02-03T23:54:24.952Z,4.50
2023-02-03T23:56:53.764Z,4.50
2023-02-03T23:59:24.223Z,4.50
